Flight Track Log - Related Links

Times and Time Zones

All times are in EDT time to prevent confusion due to time zone crossing. See the HAL118 flight status page for this flight to view local times or setup timezone preferences in your user account.

Time Position Orientation Groundspeed Altitude Reporting Facility
EDT Latitude Longitude Course Direction KTS MPH feet Rate Location/Type
Fri 01:21:49 PM 21.3167 -157.9000 118° Southeast 170 196 1,100  Level Honolulu Center
Fri 01:22:49 PM 21.2667 -157.8667 148° Southeast 230 265 2,500 2,000 Climbing Honolulu Center
Fri 01:23:49 PM 21.2167 -157.8333 148° Southeast 220 253 5,100 2,250 Climbing Honolulu Center
Fri 01:24:00 PM 21.1729 -157.6821 113° Southeast  Level FlightAware Approximate
Fri 01:24:49 PM 21.1833 -157.7667 118° Southeast 250 288 7,000  Level Honolulu Center
Fri 01:25:00 PM 21.1245 -157.6034 126° Southeast  Level FlightAware Approximate
Fri 01:25:49 PM 21.1500 -157.6833 113° Southeast 280 322 8,800  Level Honolulu Center
Fri 01:26:00 PM 21.0782 -157.5231 118° Southeast  Level FlightAware Approximate
Fri 01:26:49 PM 21.1167 -157.6167 118° Southeast 300 345 10,400  Level Honolulu Center
Fri 01:27:49 PM 21.0833 -157.5167 110° East 340 391 11,600 1,400 Climbing Honolulu Center
Fri 01:28:49 PM 21.0167 -157.4333 131° Southeast 360 414 13,200 1,700 Climbing Honolulu Center
Fri 01:29:49 PM 20.9500 -157.3500 131° Southeast 370 426 15,000 1,800 Climbing Honolulu Center
Fri 01:30:49 PM 20.8833 -157.2667 131° Southeast 380 437 16,800 2,000 Climbing Honolulu Center
Fri 01:31:49 PM 20.8167 -157.1833 131° Southeast 370 426 19,000 1,091 Climbing Honolulu Center
Fri 01:32:50 PM 20.7500 -157.1000 131° Southeast 360 414 19,000  Level Honolulu Center
Fri 01:33:50 PM 20.6833 -157.0000 125° Southeast 360 414 19,000  Level Honolulu Center
Fri 01:34:50 PM 20.6167 -156.9333 137° Southeast 370 426 19,000  Level Honolulu Center
Fri 01:35:50 PM 20.5500 -156.8333 125° Southeast 370 426 19,000  Level Honolulu Center
Fri 01:36:50 PM 20.4833 -156.7500 130° Southeast 370 426 19,000 -100 Level Honolulu Center
Fri 01:37:50 PM 20.4167 -156.6667 130° Southeast 370 426 18,800 -1,200 Descending Honolulu Center
Fri 01:38:50 PM 20.3667 -156.5833 123° Southeast 360 414 16,600 -2,300 Descending Honolulu Center
Fri 01:39:50 PM 20.3000 -156.5167 137° Southeast 350 403 14,200 -2,479 Descending Honolulu Center
Fri 01:40:51 PM 20.2333 -156.4333 130° Southeast 340 391 11,600 -1,835 Descending Honolulu Center
Fri 01:41:51 PM 20.1833 -156.3500 123° Southeast 320 368 10,500 -1,500 Descending Honolulu Center
Fri 01:42:51 PM 20.1333 -156.2833 129° Southeast 290 334 8,600 -1,650 Descending Honolulu Center
Fri 01:43:51 PM 20.0833 -156.2333 137° Southeast 280 322 7,200 -1,450 Descending Honolulu Center
Fri 01:44:51 PM 20.0167 -156.1833 145° Southeast 260 299 5,700 -1,700 Descending Honolulu Center
Fri 01:45:51 PM 19.9667 -156.1333 137° Southeast 260 299 3,800 -1,300 Descending Honolulu Center
Fri 01:46:51 PM 19.9000 -156.1000 155° Southeast 240 276 3,100 -700 Descending Honolulu Center

Login

Don't have an account? Register now (free) for customized features, flight alerts, and more!